Time;durP1;ratioP1;P1;durP2;ratioP2;P2;SDS_P1;SDS_P2;PMS_P1;PMS_P2;Temp;Humidity;BMP_temperature;BMP_pressure;BME280_temperature;BME280_humidity;BME280_pressure;Samples;Min_cycle;Max_cycle;Signal;HPM_P1;HPM_P2
2024/01/07 00:01:58;;;;;;;7.40;6.72;;;;;;;;;;6143206;28;20041;-89
2024/01/07 00:05:01;;;;;;;7.45;6.95;;;;;;;;;;6142665;28;20589;-89
2024/01/07 00:08:03;;;;;;;8.95;7.25;;;;;;;;;;6135424;29;20043;-89
2024/01/07 00:11:05;;;;;;;6.75;6.45;;;;;;;;;;6142810;28;20043;-89
2024/01/07 00:14:08;;;;;;;7.28;6.97;;;;;;;;;;6143867;28;20401;-89
2024/01/07 00:17:11;;;;;;;7.72;7.13;;;;;;;;;;6143933;28;20039;-89
2024/01/07 00:20:13;;;;;;;8.52;7.93;;;;;;;;;;6133831;28;20036;-89
2024/01/07 00:23:15;;;;;;;6.93;6.40;;;;;;;;;;6133777;29;20491;-89
2024/01/07 00:26:16;;;;;;;7.40;7.00;;;;;;;;;;6140018;28;20042;-89
2024/01/07 00:29:18;;;;;;;7.32;7.03;;;;;;;;;;6143664;28;20453;-89
2024/01/07 00:32:20;;;;;;;6.90;6.50;;;;;;;;;;6138505;28;20770;-89
2024/01/07 00:35:21;;;;;;;7.10;6.70;;;;;;;;;;6136638;28;20051;-89
2024/01/07 00:38:23;;;;;;;8.20;7.63;;;;;;;;;;6143791;29;20545;-89
2024/01/07 00:41:25;;;;;;;7.28;6.88;;;;;;;;;;6122482;29;20059;-89
2024/01/07 00:44:26;;;;;;;7.75;7.32;;;;;;;;;;6140984;29;20153;-90
2024/01/07 00:47:28;;;;;;;10.32;6.78;;;;;;;;;;6138351;28;20050;-90
2024/01/07 00:50:30;;;;;;;7.80;7.10;;;;;;;;;;6141815;28;20039;-90
2024/01/07 00:53:32;;;;;;;8.18;7.35;;;;;;;;;;6138552;29;20094;-91
2024/01/07 00:56:33;;;;;;;7.95;7.40;;;;;;;;;;6139851;29;20051;-91
2024/01/07 00:59:35;;;;;;;7.25;6.80;;;;;;;;;;6124513;29;20055;-91
2024/01/07 01:02:37;;;;;;;7.40;6.95;;;;;;;;;;6140832;29;20545;-92
2024/01/07 01:05:39;;;;;;;8.73;8.23;;;;;;;;;;6141005;28;20051;-95
2024/01/07 01:08:41;;;;;;;7.50;6.95;;;;;;;;;;6125649;29;20047;-94
2024/01/07 01:11:42;;;;;;;8.60;8.00;;;;;;;;;;6140314;28;20057;-95
2024/01/07 01:14:44;;;;;;;8.38;7.97;;;;;;;;;;6141453;28;20051;-94
2024/01/07 01:17:46;;;;;;;8.25;7.75;;;;;;;;;;6142740;28;20077;-95
2024/01/07 01:20:48;;;;;;;7.30;6.80;;;;;;;;;;6142775;28;20043;-95
2024/01/07 01:23:50;;;;;;;7.70;7.30;;;;;;;;;;6124622;29;20561;-95
2024/01/07 01:26:52;;;;;;;8.20;7.70;;;;;;;;;;6113704;29;20056;-95
2024/01/07 01:29:54;;;;;;;6.32;6.03;;;;;;;;;;6138564;28;20214;-94
2024/01/07 01:32:56;;;;;;;8.65;7.95;;;;;;;;;;6140567;29;20149;-94
2024/01/07 01:35:58;;;;;;;8.60;7.88;;;;;;;;;;6142548;28;20406;-94
2024/01/07 01:38:59;;;;;;;7.03;6.60;;;;;;;;;;6131752;29;20056;-94
2024/01/07 01:42:04;;;;;;;7.00;6.55;;;;;;;;;;6135940;29;20051;-94
2024/01/07 01:45:06;;;;;;;6.82;6.43;;;;;;;;;;6120254;28;20580;-94
2024/01/07 01:48:08;;;;;;;7.43;7.03;;;;;;;;;;6126463;29;20490;-94
2024/01/07 01:51:10;;;;;;;7.95;7.15;;;;;;;;;;6124762;29;20086;-94
2024/01/07 01:54:12;;;;;;;8.32;7.72;;;;;;;;;;6130276;29;20437;-94
2024/01/07 01:57:16;;;;;;;9.13;8.52;;;;;;;;;;6130590;28;20134;-94
2024/01/07 02:00:18;;;;;;;8.00;7.25;;;;;;;;;;6133892;29;20062;-93
2024/01/07 02:03:20;;;;;;;7.70;7.30;;;;;;;;;;6139509;29;20043;-95
2024/01/07 02:06:23;;;;;;;7.70;7.30;;;;;;;;;;6141869;28;20043;-95
2024/01/07 02:09:25;;;;;;;8.68;8.13;;;;;;;;;;6141059;28;20058;-96
2024/01/07 02:12:26;;;;;;;8.20;6.75;;;;;;;;;;6135072;28;20548;-95
2024/01/07 02:15:29;;;;;;;6.80;6.32;;;;;;;;;;6134300;29;20058;-96
2024/01/07 02:18:31;;;;;;;8.07;7.53;;;;;;;;;;6131882;28;20047;-95
2024/01/07 02:21:33;;;;;;;7.85;7.35;;;;;;;;;;6133069;28;20178;-94
2024/01/07 02:24:34;;;;;;;7.93;7.47;;;;;;;;;;6137911;28;20051;-95
2024/01/07 02:27:36;;;;;;;6.38;6.15;;;;;;;;;;6137139;28;20170;-95
2024/01/07 02:30:38;;;;;;;10.32;8.05;;;;;;;;;;6137127;28;20064;-96
2024/01/07 02:33:41;;;;;;;6.90;6.60;;;;;;;;;;6138687;29;20047;-95
2024/01/07 02:36:44;;;;;;;7.40;6.82;;;;;;;;;;6138930;28;20093;-95
2024/01/07 02:39:45;;;;;;;15.32;8.20;;;;;;;;;;6141658;28;20046;-94
2024/01/07 02:43:01;;;;;;;5.70;5.50;;;;;;;;;;6122414;29;20489;-95
2024/01/07 02:46:03;;;;;;;10.32;7.38;;;;;;;;;;6133457;29;20054;-95
2024/01/07 02:49:05;;;;;;;6.57;6.13;;;;;;;;;;6149748;28;20367;-95
2024/01/07 02:52:07;;;;;;;7.40;6.97;;;;;;;;;;6140815;28;20039;-96
2024/01/07 02:55:09;;;;;;;7.45;6.85;;;;;;;;;;6129537;29;20377;-96
2024/01/07 02:58:11;;;;;;;8.07;7.43;;;;;;;;;;6135196;29;20035;-96
2024/01/07 03:01:13;;;;;;;6.63;6.25;;;;;;;;;;6126484;29;20039;-96
2024/01/07 03:04:15;;;;;;;10.27;7.45;;;;;;;;;;6138688;28;20054;-96
2024/01/07 03:07:17;;;;;;;6.72;6.22;;;;;;;;;;6137267;28;20098;-96
2024/01/07 03:10:19;;;;;;;5.85;5.60;;;;;;;;;;6142136;28;20103;-96
2024/01/07 03:13:21;;;;;;;6.50;6.20;;;;;;;;;;6132789;29;20077;-96
2024/01/07 03:16:24;;;;;;;6.32;6.03;;;;;;;;;;6142238;28;20105;-96
2024/01/07 03:19:26;;;;;;;7.97;7.57;;;;;;;;;;6138432;29;20553;-96
2024/01/07 03:22:28;;;;;;;7.60;7.07;;;;;;;;;;6138778;28;20129;-96
2024/01/07 03:25:30;;;;;;;7.65;7.10;;;;;;;;;;6141949;29;20047;-96
2024/01/07 03:28:32;;;;;;;7.28;6.88;;;;;;;;;;6151433;29;20051;-96
2024/01/07 03:31:34;;;;;;;5.88;5.63;;;;;;;;;;6149755;28;20079;-96
2024/01/07 03:34:38;;;;;;;5.93;5.63;;;;;;;;;;6147515;28;20043;-96
2024/01/07 03:37:40;;;;;;;6.43;6.13;;;;;;;;;;6148639;28;20035;-96
2024/01/07 03:40:42;;;;;;;6.40;6.10;;;;;;;;;;6144266;29;20378;-96
2024/01/07 03:43:45;;;;;;;5.90;5.38;;;;;;;;;;6157699;28;20047;-96
2024/01/07 03:46:47;;;;;;;7.75;7.07;;;;;;;;;;6156534;28;20111;-96
2024/01/07 03:49:52;;;;;;;5.22;5.03;;;;;;;;;;6157921;28;20050;-96
2024/01/07 03:52:54;;;;;;;5.50;5.25;;;;;;;;;;6160772;28;20059;-96
2024/01/07 03:55:56;;;;;;;6.88;6.38;;;;;;;;;;6165601;28;20043;-96
2024/01/07 03:58:58;;;;;;;5.65;5.35;;;;;;;;;;6167925;29;20055;-96
2024/01/07 04:02:02;;;;;;;7.50;5.90;;;;;;;;;;6158183;29;20587;-96
2024/01/07 04:05:17;;;;;;;6.00;5.63;;;;;;;;;;6163378;29;20067;-96
2024/01/07 04:08:20;;;;;;;5.20;4.97;;;;;;;;;;6171948;28;20063;-96
2024/01/07 04:11:22;;;;;;;5.97;5.55;;;;;;;;;;6182847;28;20054;-96
2024/01/07 04:14:28;;;;;;;5.88;5.57;;;;;;;;;;6175606;28;20027;-96
2024/01/07 04:17:32;;;;;;;6.35;5.95;;;;;;;;;;6164647;28;20071;-96
2024/01/07 04:20:39;;;;;;;5.70;5.35;;;;;;;;;;6158309;28;20047;-96
2024/01/07 04:27:19;;;;;;;4.68;4.57;;;;;;;;;;7171767;23;20039;-96
2024/01/07 04:30:24;;;;;;;5.72;5.43;;;;;;;;;;6356299;23;20056;-96
2024/01/07 04:33:33;;;;;;;6.00;5.38;;;;;;;;;;6159974;28;20481;-96
2024/01/07 04:36:38;;;;;;;7.32;6.68;;;;;;;;;;6266751;23;20061;-96
2024/01/07 04:39:49;;;;;;;5.13;4.82;;;;;;;;;;6173084;28;20027;-96
2024/01/07 04:42:53;;;;;;;6.55;5.90;;;;;;;;;;7001060;23;20041;-96
2024/01/07 04:53:49;;;;;;;6.82;6.43;;;;;;;;;;7631049;23;21207;31
2024/01/07 04:57:01;;;;;;;5.28;4.97;;;;;;;;;;6139202;29;20525;-96
2024/01/07 05:00:04;;;;;;;5.60;5.30;;;;;;;;;;6122238;29;20056;-96
2024/01/07 05:03:06;;;;;;;6.78;4.78;;;;;;;;;;6120100;29;20048;-96
2024/01/07 05:06:09;;;;;;;4.40;4.30;;;;;;;;;;6119619;29;20035;-96
2024/01/07 05:09:12;;;;;;;5.38;5.18;;;;;;;;;;6122723;29;20048;-96
2024/01/07 05:12:16;;;;;;;4.65;4.45;;;;;;;;;;6125337;29;20127;-96
2024/01/07 05:15:26;;;;;;;5.53;5.22;;;;;;;;;;6134867;29;20522;-96
2024/01/07 05:18:48;;;;;;;4.85;4.65;;;;;;;;;;6129169;29;20044;-96
2024/01/07 05:21:59;;;;;;;5.25;5.05;;;;;;;;;;6103403;29;20052;-96
2024/01/07 05:25:02;;;;;;;4.93;4.75;;;;;;;;;;6087765;29;20044;-96
2024/01/07 05:28:06;;;;;;;6.05;5.65;;;;;;;;;;6104247;29;20067;-96
2024/01/07 05:38:56;;;;;;;5.45;5.15;;;;;;;;;;7021811;23;20079;-96
2024/01/07 05:42:04;;;;;;;5.45;5.15;;;;;;;;;;6190082;28;20046;-96
2024/01/07 05:45:10;;;;;;;5.45;5.25;;;;;;;;;;6203052;28;20058;-96
2024/01/07 07:00:58;;;;;;;6.18;5.95;;;;;;;;;;6065887;23;20050;-96
2024/01/07 07:04:01;;;;;;;5.72;5.53;;;;;;;;;;6204125;28;20522;-96
2024/01/07 07:07:03;;;;;;;5.82;5.63;;;;;;;;;;6165072;28;20114;-96
2024/01/07 07:10:06;;;;;;;6.65;6.45;;;;;;;;;;6178061;28;20043;-96
2024/01/07 07:13:08;;;;;;;10.00;9.30;;;;;;;;;;6179783;28;20042;-96
2024/01/07 07:16:11;;;;;;;8.35;7.97;;;;;;;;;;6165876;28;20058;-96
2024/01/07 07:19:15;;;;;;;9.93;9.00;;;;;;;;;;6140303;28;20145;-96
2024/01/07 07:22:17;;;;;;;7.35;7.05;;;;;;;;;;6160348;28;20485;-96
2024/01/07 07:25:19;;;;;;;7.40;7.00;;;;;;;;;;6162298;28;20104;-96
2024/01/07 07:28:22;;;;;;;8.13;7.82;;;;;;;;;;6161332;28;20555;-96
2024/01/07 07:31:24;;;;;;;8.43;8.02;;;;;;;;;;6146597;28;20497;-96
2024/01/07 07:34:27;;;;;;;7.28;6.97;;;;;;;;;;6155987;28;20142;-96
2024/01/07 07:37:29;;;;;;;8.65;8.25;;;;;;;;;;6135730;28;20129;-96
2024/01/07 07:40:32;;;;;;;7.45;7.15;;;;;;;;;;6136715;28;20051;-96
2024/01/07 07:43:34;;;;;;;8.98;8.23;;;;;;;;;;6161977;28;20038;-96
2024/01/07 07:46:36;;;;;;;7.43;7.03;;;;;;;;;;6146746;28;20046;-96
2024/01/07 07:49:40;;;;;;;8.88;8.48;;;;;;;;;;6161990;28;20054;-96
2024/01/07 07:52:43;;;;;;;7.05;6.75;;;;;;;;;;6161847;28;20333;-96
2024/01/07 07:55:45;;;;;;;7.53;7.22;;;;;;;;;;6141066;28;20054;-96
2024/01/07 07:58:48;;;;;;;8.13;7.82;;;;;;;;;;6160082;28;20402;-96
2024/01/07 08:01:51;;;;;;;7.15;6.80;;;;;;;;;;6164356;28;20034;-96
2024/01/07 08:04:53;;;;;;;7.38;7.07;;;;;;;;;;6163523;28;20455;-96
2024/01/07 08:07:56;;;;;;;10.80;10.10;;;;;;;;;;6161774;28;20047;-96
2024/01/07 08:10:58;;;;;;;10.70;10.23;;;;;;;;;;6157175;28;20346;-96
2024/01/07 08:14:01;;;;;;;11.52;10.73;;;;;;;;;;6157665;28;20049;-96
2024/01/07 08:17:04;;;;;;;11.10;10.50;;;;;;;;;;6159568;28;20042;-95
2024/01/07 08:20:07;;;;;;;13.85;13.30;;;;;;;;;;6163300;28;20043;-96
2024/01/07 08:23:10;;;;;;;12.13;11.63;;;;;;;;;;6163400;28;20043;-96
2024/01/07 08:26:12;;;;;;;11.75;11.35;;;;;;;;;;6157648;28;20043;-96
2024/01/07 08:29:14;;;;;;;9.82;9.48;;;;;;;;;;6165772;28;20046;-96
2024/01/07 08:32:16;;;;;;;9.60;9.25;;;;;;;;;;6154346;28;20074;-96
2024/01/07 08:35:19;;;;;;;12.70;12.27;;;;;;;;;;6162336;28;20613;-96
2024/01/07 08:38:22;;;;;;;9.15;8.85;;;;;;;;;;6170260;28;20053;-96
2024/01/07 08:41:24;;;;;;;7.88;7.22;;;;;;;;;;6172420;28;20078;-96
2024/01/07 08:44:26;;;;;;;9.70;9.30;;;;;;;;;;6142147;28;20318;-96
2024/01/07 08:47:31;;;;;;;8.07;7.78;;;;;;;;;;6164736;28;20047;-96
2024/01/07 08:50:41;;;;;;;9.38;9.05;;;;;;;;;;6232936;23;20120;-96
2024/01/07 08:54:08;;;;;;;10.52;10.15;;;;;;;;;;6171486;28;20023;-96
2024/01/07 08:57:57;;;;;;;10.20;9.80;;;;;;;;;;6044676;26;20059;-96
2024/01/07 09:01:08;;;;;;;9.18;8.77;;;;;;;;;;6185561;28;20027;-96
2024/01/07 09:04:46;;;;;;;10.05;9.52;;;;;;;;;;6149847;29;20027;-96
2024/01/07 09:07:52;;;;;;;7.45;7.15;;;;;;;;;;6151446;28;20035;-96
2024/01/07 09:10:59;;;;;;;7.20;6.65;;;;;;;;;;6166816;28;20043;-96
2024/01/07 09:14:03;;;;;;;6.78;6.03;;;;;;;;;;6170298;28;20045;-96
2024/01/07 09:17:10;;;;;;;6.07;5.85;;;;;;;;;;6149365;28;20394;-96
2024/01/07 09:20:13;;;;;;;6.18;5.97;;;;;;;;;;6153801;28;20057;-96
2024/01/07 09:23:17;;;;;;;6.55;6.15;;;;;;;;;;6187282;28;20034;-96
2024/01/07 09:26:24;;;;;;;5.95;5.65;;;;;;;;;;6149911;28;20236;-96
2024/01/07 09:29:28;;;;;;;6.00;5.70;;;;;;;;;;6163247;28;20517;-96
2024/01/07 09:32:32;;;;;;;6.10;5.90;;;;;;;;;;6177662;28;20043;-96
2024/01/07 09:35:40;;;;;;;5.55;5.30;;;;;;;;;;6150921;28;20083;-96
2024/01/07 09:38:46;;;;;;;6.00;5.80;;;;;;;;;;6184988;28;20047;-96
2024/01/07 09:41:52;;;;;;;4.90;4.80;;;;;;;;;;6170071;28;20050;-96
2024/01/07 09:44:56;;;;;;;7.00;6.63;;;;;;;;;;6156425;28;20070;-96
2024/01/07 09:47:59;;;;;;;5.88;5.68;;;;;;;;;;6161853;28;20058;-96
2024/01/07 09:51:04;;;;;;;6.03;5.70;;;;;;;;;;6148837;28;20118;-96
2024/01/07 09:54:11;;;;;;;5.72;5.47;;;;;;;;;;6149846;28;20046;-96
2024/01/07 09:57:14;;;;;;;6.63;6.32;;;;;;;;;;6157326;28;20047;-96
2024/01/07 10:00:16;;;;;;;5.60;5.40;;;;;;;;;;6139489;28;20098;-96
2024/01/07 10:03:19;;;;;;;5.97;5.78;;;;;;;;;;6144363;28;20110;-96
2024/01/07 10:06:22;;;;;;;5.50;5.30;;;;;;;;;;6144711;28;20050;-96
2024/01/07 10:09:28;;;;;;;5.85;5.60;;;;;;;;;;6148859;28;20519;-95
2024/01/07 10:12:30;;;;;;;5.30;5.10;;;;;;;;;;6137233;28;20046;-96
2024/01/07 10:15:33;;;;;;;5.65;5.45;;;;;;;;;;6140737;28;20047;-96
2024/01/07 10:18:37;;;;;;;6.20;5.93;;;;;;;;;;6154527;28;20051;-93
2024/01/07 10:21:40;;;;;;;6.32;6.03;;;;;;;;;;6138603;28;20031;-95
2024/01/07 10:24:49;;;;;;;5.95;5.75;;;;;;;;;;6146585;28;20057;-96
2024/01/07 10:27:51;;;;;;;5.60;5.30;;;;;;;;;;6144372;28;20617;-94
2024/01/07 10:30:54;;;;;;;5.40;5.20;;;;;;;;;;6134367;28;20058;-94
2024/01/07 10:33:56;;;;;;;6.03;5.82;;;;;;;;;;6127271;29;20110;-95
2024/01/07 10:36:59;;;;;;;5.22;5.03;;;;;;;;;;6147301;28;20461;-94
2024/01/07 10:40:03;;;;;;;6.18;5.88;;;;;;;;;;6139757;29;20039;-94
2024/01/07 10:43:05;;;;;;;6.85;6.55;;;;;;;;;;6137368;28;20191;-94
2024/01/07 10:46:09;;;;;;;5.22;4.97;;;;;;;;;;6148195;28;20043;-94
2024/01/07 10:49:23;;;;;;;5.95;5.72;;;;;;;;;;6121890;29;20051;-94
2024/01/07 10:52:26;;;;;;;5.63;5.32;;;;;;;;;;6152420;29;20165;-94
2024/01/07 10:55:33;;;;;;;5.88;5.68;;;;;;;;;;6117549;28;20054;-93
2024/01/07 10:58:36;;;;;;;5.47;5.28;;;;;;;;;;6148565;28;20754;-94
2024/01/07 11:01:39;;;;;;;4.85;4.68;;;;;;;;;;6134735;29;20054;-94
2024/01/07 11:05:00;;;;;;;6.07;5.55;;;;;;;;;;6138629;28;20050;-94
2024/01/07 11:08:02;;;;;;;6.35;6.05;;;;;;;;;;6139879;28;20047;-93
2024/01/07 11:11:18;;;;;;;5.05;4.85;;;;;;;;;;6133654;28;20044;-94
2024/01/07 11:14:45;;;;;;;6.75;6.45;;;;;;;;;;6135775;28;20050;-94
2024/01/07 11:17:47;;;;;;;7.00;6.63;;;;;;;;;;6128612;29;20058;-93
2024/01/07 11:20:49;;;;;;;5.90;5.60;;;;;;;;;;6138239;28;20069;-94
2024/01/07 11:23:53;;;;;;;6.15;5.50;;;;;;;;;;6140122;28;20126;-93
2024/01/07 11:27:01;;;;;;;5.85;5.60;;;;;;;;;;6136496;28;20056;-93
2024/01/07 11:30:06;;;;;;;5.13;4.93;;;;;;;;;;6133166;28;20431;-93
2024/01/07 11:33:11;;;;;;;6.72;6.32;;;;;;;;;;6137775;28;20058;-94
2024/01/07 11:36:15;;;;;;;7.00;6.70;;;;;;;;;;6150178;28;20265;-94
2024/01/07 11:39:17;;;;;;;6.93;6.43;;;;;;;;;;6139499;28;20031;-93
2024/01/07 11:42:19;;;;;;;5.32;5.13;;;;;;;;;;6152469;28;20133;-94
2024/01/07 11:45:22;;;;;;;4.78;4.68;;;;;;;;;;6139895;28;20066;-93
2024/01/07 11:48:24;;;;;;;4.82;4.68;;;;;;;;;;6133735;28;20062;-93
2024/01/07 11:51:26;;;;;;;6.30;6.00;;;;;;;;;;6131486;28;20062;-93
2024/01/07 11:54:29;;;;;;;5.45;5.25;;;;;;;;;;6133741;28;20047;-94
2024/01/07 11:57:31;;;;;;;6.05;5.78;;;;;;;;;;6123218;28;20051;-93
2024/01/07 12:00:33;;;;;;;5.88;5.68;;;;;;;;;;6144480;28;20043;-94
2024/01/07 12:03:36;;;;;;;5.32;5.13;;;;;;;;;;6140382;28;20047;-94
2024/01/07 12:06:38;;;;;;;5.78;5.57;;;;;;;;;;6136058;28;20498;-93
2024/01/07 12:09:40;;;;;;;6.38;6.07;;;;;;;;;;6135742;29;20047;-93
2024/01/07 12:12:42;;;;;;;6.50;6.20;;;;;;;;;;6135657;28;20051;-94
2024/01/07 12:15:45;;;;;;;4.90;4.80;;;;;;;;;;6136765;28;20533;-93
2024/01/07 12:18:47;;;;;;;5.75;5.55;;;;;;;;;;6139766;28;20042;-92
2024/01/07 12:22:00;;;;;;;5.88;5.57;;;;;;;;;;6141631;28;20186;-92
2024/01/07 12:25:03;;;;;;;5.22;5.05;;;;;;;;;;6141021;28;20058;-92
2024/01/07 12:28:06;;;;;;;4.88;4.72;;;;;;;;;;6142543;28;20055;-92
2024/01/07 12:31:09;;;;;;;5.57;5.38;;;;;;;;;;6140361;28;20036;-92
2024/01/07 12:34:12;;;;;;;4.68;4.57;;;;;;;;;;6142438;28;20595;-91
2024/01/07 12:37:14;;;;;;;4.65;4.50;;;;;;;;;;6145476;28;20047;-92
2024/01/07 12:40:16;;;;;;;5.00;4.82;;;;;;;;;;6140326;28;20157;-91
2024/01/07 12:43:18;;;;;;;5.80;5.55;;;;;;;;;;6141174;29;20379;-93
2024/01/07 12:46:21;;;;;;;5.15;4.95;;;;;;;;;;6142672;28;20054;-92
2024/01/07 12:49:23;;;;;;;5.05;4.85;;;;;;;;;;6142488;29;20047;-92
2024/01/07 12:52:27;;;;;;;5.72;5.53;;;;;;;;;;6140520;28;20055;-92
2024/01/07 12:55:29;;;;;;;6.40;6.10;;;;;;;;;;6145182;28;20043;-92
2024/01/07 12:58:31;;;;;;;6.18;5.88;;;;;;;;;;6141126;28;20106;-92
2024/01/07 13:01:34;;;;;;;5.25;5.05;;;;;;;;;;6141134;28;20047;-92
2024/01/07 13:04:36;;;;;;;5.88;5.63;;;;;;;;;;6145978;28;20059;-92
2024/01/07 13:07:39;;;;;;;5.38;5.18;;;;;;;;;;6139455;28;20486;-92
2024/01/07 13:10:41;;;;;;;5.30;5.10;;;;;;;;;;6138070;28;20039;-92
2024/01/07 13:13:43;;;;;;;6.03;5.72;;;;;;;;;;6140331;28;20177;-92
2024/01/07 13:16:46;;;;;;;4.88;4.70;;;;;;;;;;6141746;28;20047;-92
2024/01/07 13:19:48;;;;;;;6.18;5.90;;;;;;;;;;6134901;28;20043;-92
2024/01/07 13:22:50;;;;;;;5.38;5.18;;;;;;;;;;6142856;28;20557;-92
2024/01/07 13:25:52;;;;;;;4.97;4.78;;;;;;;;;;6137605;28;20047;-92
2024/01/07 13:28:54;;;;;;;5.30;5.10;;;;;;;;;;6135845;29;20055;-92
2024/01/07 13:31:56;;;;;;;5.80;5.60;;;;;;;;;;6138481;28;20051;-92
2024/01/07 13:34:58;;;;;;;5.07;4.88;;;;;;;;;;6141581;28;20054;-92
2024/01/07 13:38:01;;;;;;;5.43;5.22;;;;;;;;;;6139595;28;20054;-92
2024/01/07 13:41:04;;;;;;;5.22;5.03;;;;;;;;;;6134997;29;20047;-92
2024/01/07 13:44:07;;;;;;;5.72;5.47;;;;;;;;;;6152668;28;20044;-92
2024/01/07 13:47:10;;;;;;;5.88;5.68;;;;;;;;;;6136480;28;20039;-91
2024/01/07 13:50:12;;;;;;;5.65;5.45;;;;;;;;;;6141520;28;20507;-91
2024/01/07 13:53:14;;;;;;;5.63;5.43;;;;;;;;;;6138993;28;20051;-90
2024/01/07 13:56:16;;;;;;;5.53;5.32;;;;;;;;;;6151392;28;20053;-92
2024/01/07 13:59:18;;;;;;;10.10;5.18;;;;;;;;;;6136603;29;20074;-92
2024/01/07 14:02:22;;;;;;;5.60;5.40;;;;;;;;;;6128468;28;20616;-93
2024/01/07 14:05:24;;;;;;;6.05;5.75;;;;;;;;;;6138500;28;20080;-92
2024/01/07 14:08:26;;;;;;;10.60;10.10;;;;;;;;;;6129685;28;20059;-91
2024/01/07 14:11:28;;;;;;;5.07;4.88;;;;;;;;;;6134629;28;20109;-91
2024/01/07 14:14:30;;;;;;;6.47;6.18;;;;;;;;;;6139164;28;20084;-92
2024/01/07 14:17:32;;;;;;;5.65;5.45;;;;;;;;;;6131560;28;20047;-93
2024/01/07 14:20:34;;;;;;;5.85;5.65;;;;;;;;;;6135757;28;20489;-92
2024/01/07 14:23:36;;;;;;;6.00;5.70;;;;;;;;;;6128838;28;20078;-92
2024/01/07 14:26:38;;;;;;;7.18;6.60;;;;;;;;;;6132922;28;20133;-92
2024/01/07 14:29:40;;;;;;;6.95;6.65;;;;;;;;;;6132051;28;20732;-92
2024/01/07 14:32:42;;;;;;;5.32;5.13;;;;;;;;;;6139456;28;20051;-93
2024/01/07 14:35:44;;;;;;;6.25;6.05;;;;;;;;;;6132807;28;20054;-93
2024/01/07 14:38:47;;;;;;;5.47;5.28;;;;;;;;;;6149595;28;20043;-93
2024/01/07 14:41:49;;;;;;;4.53;4.43;;;;;;;;;;6132930;28;20190;-92
2024/01/07 14:44:51;;;;;;;5.47;5.28;;;;;;;;;;6128127;28;20039;-92
2024/01/07 14:47:53;;;;;;;5.85;5.65;;;;;;;;;;6149998;28;20051;-93
2024/01/07 14:50:56;;;;;;;7.13;6.82;;;;;;;;;;6133651;28;20174;-93
2024/01/07 14:53:58;;;;;;;6.97;6.43;;;;;;;;;;6132329;28;20062;-94
2024/01/07 14:57:00;;;;;;;7.60;7.20;;;;;;;;;;6129662;28;20055;-94
2024/01/07 15:00:03;;;;;;;6.75;6.45;;;;;;;;;;6132746;28;20497;-94
2024/01/07 15:03:05;;;;;;;5.75;5.55;;;;;;;;;;6135909;29;20039;-95
2024/01/07 15:06:08;;;;;;;5.63;5.43;;;;;;;;;;6132596;28;20498;-95
2024/01/07 15:09:11;;;;;;;5.82;5.47;;;;;;;;;;6121373;28;20051;-94
2024/01/07 15:12:13;;;;;;;6.20;5.95;;;;;;;;;;6136427;28;20050;-96
2024/01/07 15:15:18;;;;;;;6.05;5.75;;;;;;;;;;6145917;28;20330;-95
2024/01/07 15:18:21;;;;;;;5.32;5.13;;;;;;;;;;6148918;28;20044;-96
2024/01/07 15:21:24;;;;;;;5.57;5.38;;;;;;;;;;6127813;29;20055;-96
2024/01/07 15:24:27;;;;;;;5.40;5.20;;;;;;;;;;6141143;28;20537;-95
2024/01/07 15:27:30;;;;;;;6.00;5.70;;;;;;;;;;6154190;28;20039;-94
2024/01/07 15:30:33;;;;;;;7.10;6.78;;;;;;;;;;6141627;28;20039;-96
2024/01/07 15:33:35;;;;;;;5.63;5.43;;;;;;;;;;6153167;28;20190;-95
2024/01/07 15:36:37;;;;;;;5.88;5.68;;;;;;;;;;6148507;28;20576;-95
2024/01/07 15:39:39;;;;;;;6.13;5.82;;;;;;;;;;6148267;28;20208;-95
2024/01/07 15:42:42;;;;;;;6.53;6.30;;;;;;;;;;6143653;28;20046;-95
2024/01/07 15:45:44;;;;;;;6.50;6.10;;;;;;;;;;6132040;29;20115;-95
2024/01/07 15:48:46;;;;;;;6.22;5.93;;;;;;;;;;6136636;29;20433;-95
2024/01/07 15:51:48;;;;;;;14.02;6.82;;;;;;;;;;6138745;28;20050;-96
2024/01/07 15:54:51;;;;;;;5.60;5.40;;;;;;;;;;6146692;28;20054;-95
2024/01/07 15:57:53;;;;;;;7.18;6.57;;;;;;;;;;6143855;28;20044;-96
2024/01/07 16:00:56;;;;;;;7.10;6.60;;;;;;;;;;6154627;28;20038;-96
2024/01/07 16:03:59;;;;;;;7.25;6.68;;;;;;;;;;6129464;29;20055;-96
2024/01/07 16:07:03;;;;;;;7.05;6.53;;;;;;;;;;6145590;28;20853;-96
2024/01/07 16:10:18;;;;;;;6.78;6.47;;;;;;;;;;6149472;28;20399;-96
2024/01/07 16:13:27;;;;;;;7.75;7.25;;;;;;;;;;6121240;29;20051;-96
2024/01/07 16:16:31;;;;;;;9.65;9.25;;;;;;;;;;6145260;28;20682;-96
2024/01/07 16:19:33;;;;;;;8.02;7.63;;;;;;;;;;6146580;28;20047;-96
2024/01/07 16:22:35;;;;;;;7.68;7.38;;;;;;;;;;6143954;28;20058;-96
2024/01/07 16:25:38;;;;;;;5.78;5.57;;;;;;;;;;6145094;28;20573;-96
2024/01/07 16:28:47;;;;;;;8.07;7.68;;;;;;;;;;6139191;28;20414;-96
2024/01/07 16:31:49;;;;;;;6.97;6.57;;;;;;;;;;6134730;28;20051;-96
2024/01/07 16:34:52;;;;;;;6.90;6.65;;;;;;;;;;6144308;28;20055;-96
2024/01/07 16:37:54;;;;;;;6.65;6.30;;;;;;;;;;6138123;29;20051;-96
2024/01/07 16:40:56;;;;;;;7.38;6.82;;;;;;;;;;6143521;28;20474;-96
2024/01/07 16:43:59;;;;;;;6.57;6.28;;;;;;;;;;6137507;28;20051;-96
2024/01/07 16:47:01;;;;;;;5.32;5.13;;;;;;;;;;6156412;28;20047;-93
2024/01/07 16:50:05;;;;;;;5.85;5.53;;;;;;;;;;6129282;28;20129;-95
2024/01/07 16:53:10;;;;;;;6.82;6.53;;;;;;;;;;6132127;28;20071;-96
2024/01/07 16:56:13;;;;;;;7.57;7.13;;;;;;;;;;6122882;29;20066;-96
2024/01/07 16:59:18;;;;;;;5.82;5.53;;;;;;;;;;6138236;28;20089;-96
2024/01/07 17:02:21;;;;;;;6.30;5.50;;;;;;;;;;6140463;29;20043;-96
2024/01/07 17:05:25;;;;;;;6.70;6.35;;;;;;;;;;6139061;28;20541;-96
2024/01/07 17:08:27;;;;;;;6.65;6.35;;;;;;;;;;6138480;29;20073;-94
2024/01/07 17:11:29;;;;;;;6.32;6.03;;;;;;;;;;6141002;28;20043;-94
2024/01/07 17:14:32;;;;;;;7.55;7.03;;;;;;;;;;6116725;28;20050;-95
2024/01/07 17:17:35;;;;;;;6.70;6.40;;;;;;;;;;6135335;28;20051;-96
2024/01/07 17:20:38;;;;;;;6.97;6.68;;;;;;;;;;6144124;28;20047;-95
2024/01/07 17:23:40;;;;;;;5.75;5.55;;;;;;;;;;6137162;29;20044;-95
2024/01/07 17:26:42;;;;;;;6.95;6.55;;;;;;;;;;6145821;28;20481;-95
2024/01/07 17:29:47;;;;;;;5.95;5.75;;;;;;;;;;6151776;28;20043;-95
2024/01/07 17:32:49;;;;;;;6.35;6.05;;;;;;;;;;6139794;28;20046;-95
2024/01/07 17:35:56;;;;;;;6.85;6.32;;;;;;;;;;6148120;28;20058;-94
2024/01/07 17:38:58;;;;;;;7.15;6.78;;;;;;;;;;6150048;28;20047;-96
2024/01/07 17:42:04;;;;;;;7.25;6.85;;;;;;;;;;6152801;28;20058;-96
2024/01/07 17:45:11;;;;;;;8.02;7.53;;;;;;;;;;6145515;28;20037;-95
2024/01/07 17:48:13;;;;;;;9.77;9.38;;;;;;;;;;6133030;28;20569;-95
2024/01/07 17:51:18;;;;;;;11.20;10.70;;;;;;;;;;6125432;28;20457;-96
2024/01/07 17:54:21;;;;;;;10.23;9.77;;;;;;;;;;6143165;28;20036;-96
2024/01/07 17:57:24;;;;;;;10.98;10.45;;;;;;;;;;6135938;28;20141;-96
2024/01/07 18:00:26;;;;;;;9.98;9.57;;;;;;;;;;6144841;28;20043;-95
2024/01/07 18:03:31;;;;;;;10.18;9.02;;;;;;;;;;6138444;28;20542;-95
2024/01/07 18:06:37;;;;;;;9.20;8.80;;;;;;;;;;6162452;28;20526;-95
2024/01/07 18:09:40;;;;;;;11.05;10.45;;;;;;;;;;6144662;29;20047;-96
2024/01/07 18:12:56;;;;;;;9.25;8.93;;;;;;;;;;6151797;28;20051;-96
2024/01/07 18:15:58;;;;;;;8.60;8.30;;;;;;;;;;6150595;28;20505;-96
2024/01/07 18:19:01;;;;;;;8.57;8.27;;;;;;;;;;6154804;28;20031;-96
2024/01/07 18:22:07;;;;;;;9.98;9.57;;;;;;;;;;6130912;29;20529;-95
2024/01/07 18:25:09;;;;;;;9.73;9.30;;;;;;;;;;6143279;28;20043;-96
2024/01/07 18:28:12;;;;;;;9.85;9.45;;;;;;;;;;6141144;28;20040;-96
2024/01/07 18:31:14;;;;;;;11.02;10.57;;;;;;;;;;6142810;28;20054;-96
2024/01/07 18:34:16;;;;;;;10.23;9.65;;;;;;;;;;6125085;29;20647;-96
2024/01/07 18:37:24;;;;;;;9.98;9.57;;;;;;;;;;6137481;28;20564;-96
2024/01/07 18:40:26;;;;;;;10.35;9.85;;;;;;;;;;6137117;28;20101;-96
2024/01/07 18:43:28;;;;;;;9.18;8.40;;;;;;;;;;6135691;28;20489;-96
2024/01/07 18:46:30;;;;;;;9.93;9.48;;;;;;;;;;6135766;28;20051;-96
2024/01/07 18:49:38;;;;;;;9.15;8.70;;;;;;;;;;6136200;28;20047;-96
2024/01/07 18:52:40;;;;;;;8.63;8.23;;;;;;;;;;6140286;28;20175;-96
2024/01/07 18:55:46;;;;;;;9.75;9.35;;;;;;;;;;6119490;29;20043;-96
2024/01/07 18:58:49;;;;;;;10.00;9.60;;;;;;;;;;6141583;29;20039;-95
2024/01/07 19:01:52;;;;;;;10.40;9.80;;;;;;;;;;6140508;28;20174;-96
2024/01/07 19:04:53;;;;;;;9.73;9.32;;;;;;;;;;6140423;28;20514;-96
2024/01/07 19:07:56;;;;;;;9.45;9.05;;;;;;;;;;6121176;28;20062;-95
2024/01/07 19:10:58;;;;;;;7.95;7.63;;;;;;;;;;6138838;28;20047;-96
2024/01/07 19:14:01;;;;;;;9.43;8.85;;;;;;;;;;6134474;28;20042;-94
2024/01/07 19:17:04;;;;;;;9.00;8.68;;;;;;;;;;6137425;28;20512;-95
2024/01/07 19:20:07;;;;;;;9.25;8.90;;;;;;;;;;6137258;28;20040;-96
2024/01/07 19:23:09;;;;;;;9.60;9.02;;;;;;;;;;6136175;29;20047;-96
2024/01/07 19:26:11;;;;;;;10.10;9.70;;;;;;;;;;6145133;28;20049;-95
2024/01/07 19:29:13;;;;;;;10.70;9.70;;;;;;;;;;6136124;29;20043;-96
2024/01/07 19:32:15;;;;;;;11.15;10.45;;;;;;;;;;6137843;28;20520;-96
2024/01/07 19:35:18;;;;;;;9.80;9.40;;;;;;;;;;6134149;28;20051;-95
2024/01/07 19:38:21;;;;;;;10.02;9.45;;;;;;;;;;6136218;29;20074;-95
2024/01/07 19:41:24;;;;;;;10.38;9.55;;;;;;;;;;6157476;28;20027;-96
2024/01/07 19:44:26;;;;;;;9.55;9.15;;;;;;;;;;6142357;28;20118;-96
2024/01/07 19:47:28;;;;;;;9.93;9.52;;;;;;;;;;6138657;29;20051;-95
2024/01/07 19:50:30;;;;;;;10.05;9.57;;;;;;;;;;6133082;29;20506;-95